sensor_id;sensor_type;location;lat;lon;timestamp;temperature;humidity
39899;DHT22;25571;47.876;10.642;2023-04-27T00:01:32;7.90;99.90
39899;DHT22;25571;47.876;10.642;2023-04-27T00:03:57;8.00;99.90
39899;DHT22;25571;47.876;10.642;2023-04-27T00:06:23;7.90;99.90
39899;DHT22;25571;47.876;10.642;2023-04-27T00:08:50;7.90;99.90
39899;DHT22;25571;47.876;10.642;2023-04-27T00:11:16;8.00;99.90
39899;DHT22;25571;47.876;10.642;2023-04-27T00:13:41;8.10;99.90
39899;DHT22;25571;47.876;10.642;2023-04-27T00:16:07;8.10;99.90
39899;DHT22;25571;47.876;10.642;2023-04-27T00:18:33;8.00;99.90
39899;DHT22;25571;47.876;10.642;2023-04-27T00:20:58;8.10;99.90
39899;DHT22;25571;47.876;10.642;2023-04-27T00:23:24;8.20;99.90
39899;DHT22;25571;47.876;10.642;2023-04-27T00:25:50;8.10;99.90
39899;DHT22;25571;47.876;10.642;2023-04-27T00:28:16;8.10;99.90
39899;DHT22;25571;47.876;10.642;2023-04-27T00:30:41;8.10;99.90
39899;DHT22;25571;47.876;10.642;2023-04-27T00:33:07;8.10;99.90
39899;DHT22;25571;47.876;10.642;2023-04-27T00:35:33;8.10;99.90
39899;DHT22;25571;47.876;10.642;2023-04-27T00:37:58;8.00;99.90
39899;DHT22;25571;47.876;10.642;2023-04-27T00:40:24;8.00;99.90
39899;DHT22;25571;47.876;10.642;2023-04-27T00:42:49;8.00;99.90
39899;DHT22;25571;47.876;10.642;2023-04-27T00:45:15;8.00;99.90
39899;DHT22;25571;47.876;10.642;2023-04-27T00:47:41;8.10;99.90
39899;DHT22;25571;47.876;10.642;2023-04-27T00:50:07;8.10;99.90
39899;DHT22;25571;47.876;10.642;2023-04-27T00:52:37;8.10;99.90
39899;DHT22;25571;47.876;10.642;2023-04-27T00:55:04;8.10;99.90
39899;DHT22;25571;47.876;10.642;2023-04-27T00:57:30;8.10;99.90
39899;DHT22;25571;47.876;10.642;2023-04-27T00:59:58;8.20;99.90
39899;DHT22;25571;47.876;10.642;2023-04-27T01:02:24;8.20;99.90
39899;DHT22;25571;47.876;10.642;2023-04-27T01:04:49;8.20;99.90
39899;DHT22;25571;47.876;10.642;2023-04-27T01:07:15;8.20;99.90
39899;DHT22;25571;47.876;10.642;2023-04-27T01:09:41;8.20;99.90
39899;DHT22;25571;47.876;10.642;2023-04-27T01:12:07;8.10;99.90
39899;DHT22;25571;47.876;10.642;2023-04-27T01:14:34;8.50;99.90
39899;DHT22;25571;47.876;10.642;2023-04-27T01:17:00;8.20;99.90
39899;DHT22;25571;47.876;10.642;2023-04-27T01:19:26;8.10;99.90
39899;DHT22;25571;47.876;10.642;2023-04-27T01:21:51;8.00;99.90
39899;DHT22;25571;47.876;10.642;2023-04-27T01:24:17;8.10;99.90
39899;DHT22;25571;47.876;10.642;2023-04-27T01:26:42;8.10;99.90
39899;DHT22;25571;47.876;10.642;2023-04-27T01:29:08;8.10;99.90
39899;DHT22;25571;47.876;10.642;2023-04-27T01:31:33;8.10;99.90
39899;DHT22;25571;47.876;10.642;2023-04-27T01:33:59;8.10;99.90
39899;DHT22;25571;47.876;10.642;2023-04-27T01:36:24;8.00;99.90
39899;DHT22;25571;47.876;10.642;2023-04-27T01:38:52;8.10;99.90
39899;DHT22;25571;47.876;10.642;2023-04-27T01:41:17;8.00;99.90
39899;DHT22;25571;47.876;10.642;2023-04-27T01:43:43;8.10;99.90
39899;DHT22;25571;47.876;10.642;2023-04-27T01:46:10;8.10;99.90
39899;DHT22;25571;47.876;10.642;2023-04-27T01:48:36;8.20;99.90
39899;DHT22;25571;47.876;10.642;2023-04-27T01:51:02;8.20;99.90
39899;DHT22;25571;47.876;10.642;2023-04-27T01:53:28;8.20;99.90
39899;DHT22;25571;47.876;10.642;2023-04-27T01:55:54;8.20;99.90
39899;DHT22;25571;47.876;10.642;2023-04-27T01:58:20;8.20;99.90
39899;DHT22;25571;47.876;10.642;2023-04-27T02:00:45;8.20;99.90
39899;DHT22;25571;47.876;10.642;2023-04-27T02:03:11;8.10;99.90
39899;DHT22;25571;47.876;10.642;2023-04-27T02:05:36;8.10;99.90
39899;DHT22;25571;47.876;10.642;2023-04-27T02:08:02;8.10;99.90
39899;DHT22;25571;47.876;10.642;2023-04-27T02:10:28;8.00;99.90
39899;DHT22;25571;47.876;10.642;2023-04-27T02:12:53;8.00;99.90
39899;DHT22;25571;47.876;10.642;2023-04-27T02:15:19;7.90;99.90
39899;DHT22;25571;47.876;10.642;2023-04-27T02:17:44;7.90;99.90
39899;DHT22;25571;47.876;10.642;2023-04-27T02:20:11;7.90;99.90
39899;DHT22;25571;47.876;10.642;2023-04-27T02:22:40;7.80;99.90
39899;DHT22;25571;47.876;10.642;2023-04-27T02:25:08;7.70;99.90
39899;DHT22;25571;47.876;10.642;2023-04-27T02:27:36;7.70;99.90
39899;DHT22;25571;47.876;10.642;2023-04-27T02:30:06;7.80;99.90
39899;DHT22;25571;47.876;10.642;2023-04-27T02:32:33;7.80;99.90
39899;DHT22;25571;47.876;10.642;2023-04-27T02:34:59;7.70;99.90
39899;DHT22;25571;47.876;10.642;2023-04-27T02:37:24;7.70;99.90
39899;DHT22;25571;47.876;10.642;2023-04-27T02:39:50;7.70;99.90
39899;DHT22;25571;47.876;10.642;2023-04-27T02:42:15;7.70;99.90
39899;DHT22;25571;47.876;10.642;2023-04-27T02:44:41;8.50;99.90
39899;DHT22;25571;47.876;10.642;2023-04-27T02:47:07;7.80;99.90
39899;DHT22;25571;47.876;10.642;2023-04-27T02:49:32;7.70;99.90
39899;DHT22;25571;47.876;10.642;2023-04-27T02:51:58;7.70;99.90
39899;DHT22;25571;47.876;10.642;2023-04-27T02:54:23;7.70;99.90
39899;DHT22;25571;47.876;10.642;2023-04-27T02:56:50;7.60;99.90
39899;DHT22;25571;47.876;10.642;2023-04-27T02:59:15;7.70;99.90
39899;DHT22;25571;47.876;10.642;2023-04-27T03:01:41;7.70;99.90
39899;DHT22;25571;47.876;10.642;2023-04-27T03:04:06;7.70;99.90
39899;DHT22;25571;47.876;10.642;2023-04-27T03:06:32;7.70;99.90
39899;DHT22;25571;47.876;10.642;2023-04-27T03:08:58;7.70;99.90
39899;DHT22;25571;47.876;10.642;2023-04-27T03:11:23;7.70;99.90
39899;DHT22;25571;47.876;10.642;2023-04-27T03:13:49;7.70;99.90
39899;DHT22;25571;47.876;10.642;2023-04-27T03:16:15;7.70;99.90
39899;DHT22;25571;47.876;10.642;2023-04-27T03:18:40;7.80;99.90
39899;DHT22;25571;47.876;10.642;2023-04-27T03:21:10;7.80;99.90
39899;DHT22;25571;47.876;10.642;2023-04-27T03:23:36;7.80;99.90
39899;DHT22;25571;47.876;10.642;2023-04-27T03:26:06;7.70;99.90
39899;DHT22;25571;47.876;10.642;2023-04-27T03:28:33;7.70;99.90
39899;DHT22;25571;47.876;10.642;2023-04-27T03:30:59;7.70;99.90
39899;DHT22;25571;47.876;10.642;2023-04-27T03:33:24;7.70;99.90
39899;DHT22;25571;47.876;10.642;2023-04-27T03:35:58;7.70;99.90
39899;DHT22;25571;47.876;10.642;2023-04-27T03:38:24;7.70;99.90
39899;DHT22;25571;47.876;10.642;2023-04-27T03:40:50;7.80;99.90
39899;DHT22;25571;47.876;10.642;2023-04-27T03:43:17;7.80;99.90
39899;DHT22;25571;47.876;10.642;2023-04-27T03:45:42;7.90;99.90
39899;DHT22;25571;47.876;10.642;2023-04-27T03:48:08;8.00;99.90
39899;DHT22;25571;47.876;10.642;2023-04-27T03:50:33;7.90;99.90
39899;DHT22;25571;47.876;10.642;2023-04-27T03:52:59;7.90;99.90
39899;DHT22;25571;47.876;10.642;2023-04-27T03:55:24;8.00;99.90
39899;DHT22;25571;47.876;10.642;2023-04-27T03:57:50;8.40;99.90
39899;DHT22;25571;47.876;10.642;2023-04-27T04:00:16;8.00;99.90
39899;DHT22;25571;47.876;10.642;2023-04-27T04:02:43;8.00;99.90
39899;DHT22;25571;47.876;10.642;2023-04-27T04:05:08;8.00;99.90
39899;DHT22;25571;47.876;10.642;2023-04-27T04:07:34;8.10;99.90
39899;DHT22;25571;47.876;10.642;2023-04-27T04:09:59;8.00;99.90
39899;DHT22;25571;47.876;10.642;2023-04-27T04:12:25;8.10;99.90
39899;DHT22;25571;47.876;10.642;2023-04-27T04:14:51;8.20;99.90
39899;DHT22;25571;47.876;10.642;2023-04-27T04:17:16;8.20;99.90
39899;DHT22;25571;47.876;10.642;2023-04-27T04:19:42;8.20;99.90
39899;DHT22;25571;47.876;10.642;2023-04-27T04:22:07;8.30;99.90
39899;DHT22;25571;47.876;10.642;2023-04-27T04:24:33;8.30;99.90
39899;DHT22;25571;47.876;10.642;2023-04-27T04:26:58;8.20;99.90
39899;DHT22;25571;47.876;10.642;2023-04-27T04:29:24;8.20;99.90
39899;DHT22;25571;47.876;10.642;2023-04-27T04:31:50;8.20;99.90
39899;DHT22;25571;47.876;10.642;2023-04-27T04:34:16;8.20;99.90
39899;DHT22;25571;47.876;10.642;2023-04-27T04:36:42;8.20;99.90
39899;DHT22;25571;47.876;10.642;2023-04-27T04:39:07;8.30;99.90
39899;DHT22;25571;47.876;10.642;2023-04-27T04:41:33;8.30;99.90
39899;DHT22;25571;47.876;10.642;2023-04-27T04:43:58;8.40;99.90
39899;DHT22;25571;47.876;10.642;2023-04-27T04:46:25;8.40;99.90
39899;DHT22;25571;47.876;10.642;2023-04-27T04:48:50;8.50;99.90
39899;DHT22;25571;47.876;10.642;2023-04-27T04:51:16;8.50;99.90
39899;DHT22;25571;47.876;10.642;2023-04-27T04:53:42;8.50;99.90
39899;DHT22;25571;47.876;10.642;2023-04-27T04:56:11;8.60;99.90
39899;DHT22;25571;47.876;10.642;2023-04-27T04:58:38;8.70;99.90
39899;DHT22;25571;47.876;10.642;2023-04-27T05:01:04;8.60;99.90
39899;DHT22;25571;47.876;10.642;2023-04-27T05:03:29;8.70;99.90
39899;DHT22;25571;47.876;10.642;2023-04-27T05:05:55;8.70;99.90
39899;DHT22;25571;47.876;10.642;2023-04-27T05:08:20;8.80;99.90
39899;DHT22;25571;47.876;10.642;2023-04-27T05:10:50;8.80;99.90
39899;DHT22;25571;47.876;10.642;2023-04-27T05:13:16;8.80;99.90
39899;DHT22;25571;47.876;10.642;2023-04-27T05:15:41;8.90;99.90
39899;DHT22;25571;47.876;10.642;2023-04-27T05:18:07;8.90;99.90
39899;DHT22;25571;47.876;10.642;2023-04-27T05:20:36;8.90;99.90
39899;DHT22;25571;47.876;10.642;2023-04-27T05:23:02;9.00;99.90
39899;DHT22;25571;47.876;10.642;2023-04-27T05:25:31;9.00;99.90
39899;DHT22;25571;47.876;10.642;2023-04-27T05:27:57;9.10;99.90
39899;DHT22;25571;47.876;10.642;2023-04-27T05:30:22;9.20;99.90
39899;DHT22;25571;47.876;10.642;2023-04-27T05:32:48;9.30;99.90
39899;DHT22;25571;47.876;10.642;2023-04-27T05:35:14;9.30;99.90
39899;DHT22;25571;47.876;10.642;2023-04-27T05:37:39;9.40;99.90
39899;DHT22;25571;47.876;10.642;2023-04-27T05:40:06;9.40;99.90
39899;DHT22;25571;47.876;10.642;2023-04-27T05:42:34;9.40;99.90
39899;DHT22;25571;47.876;10.642;2023-04-27T05:45:00;9.40;99.90
39899;DHT22;25571;47.876;10.642;2023-04-27T05:47:25;9.50;99.90
39899;DHT22;25571;47.876;10.642;2023-04-27T05:49:51;9.50;99.90
39899;DHT22;25571;47.876;10.642;2023-04-27T05:52:18;9.60;99.90
39899;DHT22;25571;47.876;10.642;2023-04-27T05:54:47;9.60;99.90
39899;DHT22;25571;47.876;10.642;2023-04-27T05:57:14;9.60;99.90
39899;DHT22;25571;47.876;10.642;2023-04-27T05:59:40;9.60;99.90
39899;DHT22;25571;47.876;10.642;2023-04-27T06:02:06;9.70;99.90
39899;DHT22;25571;47.876;10.642;2023-04-27T06:04:31;9.80;99.90
39899;DHT22;25571;47.876;10.642;2023-04-27T06:06:58;9.90;99.90
39899;DHT22;25571;47.876;10.642;2023-04-27T06:09:24;10.00;99.90
39899;DHT22;25571;47.876;10.642;2023-04-27T06:11:50;10.10;99.90
39899;DHT22;25571;47.876;10.642;2023-04-27T06:14:16;10.20;99.90
39899;DHT22;25571;47.876;10.642;2023-04-27T06:16:42;10.30;99.90
39899;DHT22;25571;47.876;10.642;2023-04-27T06:19:07;10.50;99.90
39899;DHT22;25571;47.876;10.642;2023-04-27T06:21:33;10.60;99.90
39899;DHT22;25571;47.876;10.642;2023-04-27T06:24:00;10.90;99.90
39899;DHT22;25571;47.876;10.642;2023-04-27T06:26:26;11.10;99.90
39899;DHT22;25571;47.876;10.642;2023-04-27T06:28:52;11.40;99.90
39899;DHT22;25571;47.876;10.642;2023-04-27T06:31:17;11.70;99.90
39899;DHT22;25571;47.876;10.642;2023-04-27T06:33:43;11.80;99.90
39899;DHT22;25571;47.876;10.642;2023-04-27T06:36:08;11.90;99.90
39899;DHT22;25571;47.876;10.642;2023-04-27T06:38:34;12.00;99.90
39899;DHT22;25571;47.876;10.642;2023-04-27T06:40:59;12.20;99.90
39899;DHT22;25571;47.876;10.642;2023-04-27T06:43:25;12.20;99.90
39899;DHT22;25571;47.876;10.642;2023-04-27T06:45:51;12.30;99.90
39899;DHT22;25571;47.876;10.642;2023-04-27T06:48:16;12.50;99.90
39899;DHT22;25571;47.876;10.642;2023-04-27T06:50:42;12.70;99.90
39899;DHT22;25571;47.876;10.642;2023-04-27T06:53:08;12.90;99.90
39899;DHT22;25571;47.876;10.642;2023-04-27T06:55:34;13.00;99.90
39899;DHT22;25571;47.876;10.642;2023-04-27T06:58:01;13.10;99.90
39899;DHT22;25571;47.876;10.642;2023-04-27T07:00:27;13.20;99.90
39899;DHT22;25571;47.876;10.642;2023-04-27T07:02:52;13.30;99.90
39899;DHT22;25571;47.876;10.642;2023-04-27T07:05:18;13.70;99.90
39899;DHT22;25571;47.876;10.642;2023-04-27T07:07:43;13.90;99.90
39899;DHT22;25571;47.876;10.642;2023-04-27T07:10:09;14.00;99.90
39899;DHT22;25571;47.876;10.642;2023-04-27T07:12:36;13.80;99.90
39899;DHT22;25571;47.876;10.642;2023-04-27T07:15:02;13.70;99.90
39899;DHT22;25571;47.876;10.642;2023-04-27T07:17:28;13.60;99.90
39899;DHT22;25571;47.876;10.642;2023-04-27T07:19:54;13.50;99.90
39899;DHT22;25571;47.876;10.642;2023-04-27T07:22:20;13.40;99.90
39899;DHT22;25571;47.876;10.642;2023-04-27T07:24:45;13.30;99.90
39899;DHT22;25571;47.876;10.642;2023-04-27T07:27:11;13.40;99.90
39899;DHT22;25571;47.876;10.642;2023-04-27T07:29:38;13.40;99.90
39899;DHT22;25571;47.876;10.642;2023-04-27T07:32:07;13.50;99.90
39899;DHT22;25571;47.876;10.642;2023-04-27T07:34:32;13.50;99.90
39899;DHT22;25571;47.876;10.642;2023-04-27T07:36:59;13.70;99.90
39899;DHT22;25571;47.876;10.642;2023-04-27T07:39:25;13.80;99.90
39899;DHT22;25571;47.876;10.642;2023-04-27T07:41:51;14.30;99.90
39899;DHT22;25571;47.876;10.642;2023-04-27T07:44:17;14.70;99.90
39899;DHT22;25571;47.876;10.642;2023-04-27T07:46:44;15.20;99.90
39899;DHT22;25571;47.876;10.642;2023-04-27T07:49:13;15.70;99.90
39899;DHT22;25571;47.876;10.642;2023-04-27T07:51:39;15.80;99.70
39899;DHT22;25571;47.876;10.642;2023-04-27T07:54:04;15.80;99.10
39899;DHT22;25571;47.876;10.642;2023-04-27T07:56:31;15.80;99.10
39899;DHT22;25571;47.876;10.642;2023-04-27T07:58:57;15.90;99.10
39899;DHT22;25571;47.876;10.642;2023-04-27T08:01:23;16.70;97.40
39899;DHT22;25571;47.876;10.642;2023-04-27T08:03:48;17.10;97.40
39899;DHT22;25571;47.876;10.642;2023-04-27T08:06:14;16.90;97.70
39899;DHT22;25571;47.876;10.642;2023-04-27T08:08:40;17.20;96.20
39899;DHT22;25571;47.876;10.642;2023-04-27T08:11:11;17.40;96.60
39899;DHT22;25571;47.876;10.642;2023-04-27T08:13:37;20.60;95.00
39899;DHT22;25571;47.876;10.642;2023-04-27T08:16:03;19.60;91.00
39899;DHT22;25571;47.876;10.642;2023-04-27T08:18:28;19.50;91.10
39899;DHT22;25571;47.876;10.642;2023-04-27T08:20:54;19.10;90.60
39899;DHT22;25571;47.876;10.642;2023-04-27T08:23:20;21.60;88.50
39899;DHT22;25571;47.876;10.642;2023-04-27T08:25:46;20.50;84.30
39899;DHT22;25571;47.876;10.642;2023-04-27T08:28:13;20.10;87.00
39899;DHT22;25571;47.876;10.642;2023-04-27T08:30:40;19.80;83.70
39899;DHT22;25571;47.876;10.642;2023-04-27T08:33:06;19.40;87.00
39899;DHT22;25571;47.876;10.642;2023-04-27T08:35:32;19.00;88.80
39899;DHT22;25571;47.876;10.642;2023-04-27T08:37:58;19.00;87.40
39899;DHT22;25571;47.876;10.642;2023-04-27T08:40:24;19.00;89.50
39899;DHT22;25571;47.876;10.642;2023-04-27T08:42:57;18.30;90.50
39899;DHT22;25571;47.876;10.642;2023-04-27T08:45:24;18.50;89.30
39899;DHT22;25571;47.876;10.642;2023-04-27T08:47:51;18.00;90.50
39899;DHT22;25571;47.876;10.642;2023-04-27T08:50:17;17.60;90.70
39899;DHT22;25571;47.876;10.642;2023-04-27T08:52:44;16.80;91.90
39899;DHT22;25571;47.876;10.642;2023-04-27T08:55:10;16.90;92.00
39899;DHT22;25571;47.876;10.642;2023-04-27T08:57:35;16.70;91.50
39899;DHT22;25571;47.876;10.642;2023-04-27T09:00:01;16.40;91.40
39899;DHT22;25571;47.876;10.642;2023-04-27T09:02:35;16.10;91.20
39899;DHT22;25571;47.876;10.642;2023-04-27T09:05:02;15.80;91.50
39899;DHT22;25571;47.876;10.642;2023-04-27T09:07:28;15.40;91.50
39899;DHT22;25571;47.876;10.642;2023-04-27T09:10:03;15.20;92.40
39899;DHT22;25571;47.876;10.642;2023-04-27T09:12:29;15.30;92.60
39899;DHT22;25571;47.876;10.642;2023-04-27T09:14:56;15.40;93.20
39899;DHT22;25571;47.876;10.642;2023-04-27T09:17:29;15.50;93.00
39899;DHT22;25571;47.876;10.642;2023-04-27T09:20:08;16.00;93.30
39899;DHT22;25571;47.876;10.642;2023-04-27T09:22:53;16.50;91.20
39899;DHT22;25571;47.876;10.642;2023-04-27T09:25:30;16.40;90.40
39899;DHT22;25571;47.876;10.642;2023-04-27T09:27:57;16.60;90.10
39899;DHT22;25571;47.876;10.642;2023-04-27T09:30:24;16.60;88.20
39899;DHT22;25571;47.876;10.642;2023-04-27T09:32:59;16.60;89.90
39899;DHT22;25571;47.876;10.642;2023-04-27T09:35:30;16.40;88.40
39899;DHT22;25571;47.876;10.642;2023-04-27T09:37:56;16.80;89.20
39899;DHT22;25571;47.876;10.642;2023-04-27T09:40:25;16.90;90.10
39899;DHT22;25571;47.876;10.642;2023-04-27T09:42:53;16.60;90.40
39899;DHT22;25571;47.876;10.642;2023-04-27T09:45:20;16.20;90.60
39899;DHT22;25571;47.876;10.642;2023-04-27T09:47:45;16.20;91.20
39899;DHT22;25571;47.876;10.642;2023-04-27T09:50:14;16.00;90.10
39899;DHT22;25571;47.876;10.642;2023-04-27T09:52:41;15.80;90.40
39899;DHT22;25571;47.876;10.642;2023-04-27T09:55:35;15.80;90.80
39899;DHT22;25571;47.876;10.642;2023-04-27T10:00:59;16.10;90.00
39899;DHT22;25571;47.876;10.642;2023-04-27T10:09:01;15.30;91.50
39899;DHT22;25571;47.876;10.642;2023-04-27T10:11:41;15.00;91.80
39899;DHT22;25571;47.876;10.642;2023-04-27T10:14:09;14.70;92.30
39899;DHT22;25571;47.876;10.642;2023-04-27T10:16:53;14.60;91.60
39899;DHT22;25571;47.876;10.642;2023-04-27T10:19:20;14.50;92.20
39899;DHT22;25571;47.876;10.642;2023-04-27T10:22:00;14.60;93.00
39899;DHT22;25571;47.876;10.642;2023-04-27T10:24:36;14.60;93.20
39899;DHT22;25571;47.876;10.642;2023-04-27T10:27:04;14.50;93.00
39899;DHT22;25571;47.876;10.642;2023-04-27T10:29:44;14.40;93.60
39899;DHT22;25571;47.876;10.642;2023-04-27T10:34:45;14.30;94.00
39899;DHT22;25571;47.876;10.642;2023-04-27T10:37:13;14.10;94.70
39899;DHT22;25571;47.876;10.642;2023-04-27T10:39:41;14.10;95.70
39899;DHT22;25571;47.876;10.642;2023-04-27T10:42:07;14.00;96.80
39899;DHT22;25571;47.876;10.642;2023-04-27T10:44:34;14.00;97.70
39899;DHT22;25571;47.876;10.642;2023-04-27T10:47:11;14.00;97.40
39899;DHT22;25571;47.876;10.642;2023-04-27T10:49:37;14.10;97.40
39899;DHT22;25571;47.876;10.642;2023-04-27T10:52:04;14.40;97.50
39899;DHT22;25571;47.876;10.642;2023-04-27T10:54:31;14.40;96.80
39899;DHT22;25571;47.876;10.642;2023-04-27T10:57:09;14.60;96.50
39899;DHT22;25571;47.876;10.642;2023-04-27T10:59:48;14.90;97.50
39899;DHT22;25571;47.876;10.642;2023-04-27T11:02:14;14.70;97.50
39899;DHT22;25571;47.876;10.642;2023-04-27T11:04:40;14.80;97.30
39899;DHT22;25571;47.876;10.642;2023-04-27T11:07:07;14.80;97.20
39899;DHT22;25571;47.876;10.642;2023-04-27T11:09:34;14.70;97.80
39899;DHT22;25571;47.876;10.642;2023-04-27T11:12:00;14.70;96.50
39899;DHT22;25571;47.876;10.642;2023-04-27T11:14:26;14.70;97.30
39899;DHT22;25571;47.876;10.642;2023-04-27T11:16:53;14.80;97.70
39899;DHT22;25571;47.876;10.642;2023-04-27T11:19:19;15.00;97.30
39899;DHT22;25571;47.876;10.642;2023-04-27T11:21:44;15.50;96.60
39899;DHT22;25571;47.876;10.642;2023-04-27T11:24:10;15.60;96.50
39899;DHT22;25571;47.876;10.642;2023-04-27T11:26:35;15.90;96.80
39899;DHT22;25571;47.876;10.642;2023-04-27T11:29:03;16.10;95.40
39899;DHT22;25571;47.876;10.642;2023-04-27T11:31:41;15.90;95.30
39899;DHT22;25571;47.876;10.642;2023-04-27T11:34:08;15.90;94.50
39899;DHT22;25571;47.876;10.642;2023-04-27T11:36:34;16.30;95.20
39899;DHT22;25571;47.876;10.642;2023-04-27T11:39:00;16.70;93.30
39899;DHT22;25571;47.876;10.642;2023-04-27T11:41:35;17.00;93.30
39899;DHT22;25571;47.876;10.642;2023-04-27T11:44:08;17.10;93.10
39899;DHT22;25571;47.876;10.642;2023-04-27T11:46:37;17.10;91.80
39899;DHT22;25571;47.876;10.642;2023-04-27T11:49:04;16.90;92.70
39899;DHT22;25571;47.876;10.642;2023-04-27T11:51:31;17.10;92.50
39899;DHT22;25571;47.876;10.642;2023-04-27T11:54:01;17.20;92.50
39899;DHT22;25571;47.876;10.642;2023-04-27T11:56:33;17.10;91.60
39899;DHT22;25571;47.876;10.642;2023-04-27T11:59:00;17.00;90.80
39899;DHT22;25571;47.876;10.642;2023-04-27T12:01:26;16.80;90.50
39899;DHT22;25571;47.876;10.642;2023-04-27T12:03:52;16.80;92.00
39899;DHT22;25571;47.876;10.642;2023-04-27T12:06:24;16.80;90.60
39899;DHT22;25571;47.876;10.642;2023-04-27T12:08:49;16.90;92.20
39899;DHT22;25571;47.876;10.642;2023-04-27T12:11:15;17.10;91.10
39899;DHT22;25571;47.876;10.642;2023-04-27T12:13:41;17.40;91.30
39899;DHT22;25571;47.876;10.642;2023-04-27T12:16:06;17.20;90.70
39899;DHT22;25571;47.876;10.642;2023-04-27T12:18:32;17.20;89.60
39899;DHT22;25571;47.876;10.642;2023-04-27T12:20:58;17.20;87.50
39899;DHT22;25571;47.876;10.642;2023-04-27T12:23:24;17.20;88.10
39899;DHT22;25571;47.876;10.642;2023-04-27T12:25:50;17.20;90.30
39899;DHT22;25571;47.876;10.642;2023-04-27T12:28:15;17.30;89.80
39899;DHT22;25571;47.876;10.642;2023-04-27T12:30:43;17.20;90.60
39899;DHT22;25571;47.876;10.642;2023-04-27T12:33:09;17.10;88.10
39899;DHT22;25571;47.876;10.642;2023-04-27T12:35:36;17.00;86.40
39899;DHT22;25571;47.876;10.642;2023-04-27T12:38:01;16.90;87.40
39899;DHT22;25571;47.876;10.642;2023-04-27T12:40:28;17.00;89.50
39899;DHT22;25571;47.876;10.642;2023-04-27T12:42:54;17.50;90.20
39899;DHT22;25571;47.876;10.642;2023-04-27T12:45:19;17.40;89.00
39899;DHT22;25571;47.876;10.642;2023-04-27T12:47:45;17.30;88.80
39899;DHT22;25571;47.876;10.642;2023-04-27T12:50:12;17.30;86.20
39899;DHT22;25571;47.876;10.642;2023-04-27T12:52:38;17.20;85.00
39899;DHT22;25571;47.876;10.642;2023-04-27T12:55:04;17.30;87.70
39899;DHT22;25571;47.876;10.642;2023-04-27T12:57:30;17.10;86.60
39899;DHT22;25571;47.876;10.642;2023-04-27T12:59:56;17.10;86.00
39899;DHT22;25571;47.876;10.642;2023-04-27T13:02:21;17.50;86.30
39899;DHT22;25571;47.876;10.642;2023-04-27T13:04:47;17.40;85.80
39899;DHT22;25571;47.876;10.642;2023-04-27T13:07:14;17.30;84.80
39899;DHT22;25571;47.876;10.642;2023-04-27T13:09:39;17.60;86.70
39899;DHT22;25571;47.876;10.642;2023-04-27T13:12:06;17.10;86.60
39899;DHT22;25571;47.876;10.642;2023-04-27T13:14:31;17.00;88.10
39899;DHT22;25571;47.876;10.642;2023-04-27T13:16:58;17.10;86.60
39899;DHT22;25571;47.876;10.642;2023-04-27T13:19:24;17.40;88.10
39899;DHT22;25571;47.876;10.642;2023-04-27T13:21:49;17.10;88.40
39899;DHT22;25571;47.876;10.642;2023-04-27T13:24:15;17.40;85.00
39899;DHT22;25571;47.876;10.642;2023-04-27T13:26:42;17.50;86.20
39899;DHT22;25571;47.876;10.642;2023-04-27T13:29:08;17.40;86.50
39899;DHT22;25571;47.876;10.642;2023-04-27T13:31:34;17.00;84.30
39899;DHT22;25571;47.876;10.642;2023-04-27T13:33:59;17.30;85.40
39899;DHT22;25571;47.876;10.642;2023-04-27T13:36:26;17.30;86.90
39899;DHT22;25571;47.876;10.642;2023-04-27T13:38:53;17.50;84.40
39899;DHT22;25571;47.876;10.642;2023-04-27T13:41:18;17.70;86.80
39899;DHT22;25571;47.876;10.642;2023-04-27T13:43:44;17.70;85.20
39899;DHT22;25571;47.876;10.642;2023-04-27T13:46:09;17.80;85.30
39899;DHT22;25571;47.876;10.642;2023-04-27T13:48:35;17.70;82.10
39899;DHT22;25571;47.876;10.642;2023-04-27T13:51:01;18.00;86.20
39899;DHT22;25571;47.876;10.642;2023-04-27T13:53:26;17.90;84.50
39899;DHT22;25571;47.876;10.642;2023-04-27T13:55:53;17.90;82.30
39899;DHT22;25571;47.876;10.642;2023-04-27T13:58:19;18.20;83.70
39899;DHT22;25571;47.876;10.642;2023-04-27T14:00:45;18.00;80.70
39899;DHT22;25571;47.876;10.642;2023-04-27T14:03:13;17.80;82.30
39899;DHT22;25571;47.876;10.642;2023-04-27T14:05:39;17.90;83.90
39899;DHT22;25571;47.876;10.642;2023-04-27T14:08:04;17.90;82.70
39899;DHT22;25571;47.876;10.642;2023-04-27T14:10:30;17.80;83.30
39899;DHT22;25571;47.876;10.642;2023-04-27T14:12:56;17.70;82.00
39899;DHT22;25571;47.876;10.642;2023-04-27T14:15:21;17.70;83.00
39899;DHT22;25571;47.876;10.642;2023-04-27T14:17:47;17.60;82.00
39899;DHT22;25571;47.876;10.642;2023-04-27T14:20:12;17.40;82.60
39899;DHT22;25571;47.876;10.642;2023-04-27T14:22:38;17.50;81.40
39899;DHT22;25571;47.876;10.642;2023-04-27T14:25:04;17.80;82.20
39899;DHT22;25571;47.876;10.642;2023-04-27T14:27:30;17.60;81.40
39899;DHT22;25571;47.876;10.642;2023-04-27T14:29:55;17.70;83.00
39899;DHT22;25571;47.876;10.642;2023-04-27T14:32:21;17.70;80.90
39899;DHT22;25571;47.876;10.642;2023-04-27T14:34:47;17.30;81.00
39899;DHT22;25571;47.876;10.642;2023-04-27T14:37:13;17.20;81.90
39899;DHT22;25571;47.876;10.642;2023-04-27T14:39:38;17.20;81.10
39899;DHT22;25571;47.876;10.642;2023-04-27T14:42:04;17.20;81.30
39899;DHT22;25571;47.876;10.642;2023-04-27T14:44:29;17.20;81.20
39899;DHT22;25571;47.876;10.642;2023-04-27T14:46:55;17.20;82.30
39899;DHT22;25571;47.876;10.642;2023-04-27T14:49:22;17.20;78.60
39899;DHT22;25571;47.876;10.642;2023-04-27T14:51:48;17.20;81.00
39899;DHT22;25571;47.876;10.642;2023-04-27T14:54:13;17.00;80.90
39899;DHT22;25571;47.876;10.642;2023-04-27T14:56:39;17.00;82.60
39899;DHT22;25571;47.876;10.642;2023-04-27T14:59:04;17.10;80.70
39899;DHT22;25571;47.876;10.642;2023-04-27T15:01:30;16.80;85.00
39899;DHT22;25571;47.876;10.642;2023-04-27T15:03:56;16.60;87.20
39899;DHT22;25571;47.876;10.642;2023-04-27T15:06:22;16.50;87.20
39899;DHT22;25571;47.876;10.642;2023-04-27T15:08:52;16.30;86.10
39899;DHT22;25571;47.876;10.642;2023-04-27T15:11:18;16.30;87.70
39899;DHT22;25571;47.876;10.642;2023-04-27T15:13:43;16.30;87.20
39899;DHT22;25571;47.876;10.642;2023-04-27T15:16:09;16.40;86.90
39899;DHT22;25571;47.876;10.642;2023-04-27T15:18:35;16.50;87.30
39899;DHT22;25571;47.876;10.642;2023-04-27T15:21:00;16.40;87.10
39899;DHT22;25571;47.876;10.642;2023-04-27T15:23:26;16.40;82.90
39899;DHT22;25571;47.876;10.642;2023-04-27T15:25:56;16.50;82.50
39899;DHT22;25571;47.876;10.642;2023-04-27T15:28:22;16.50;83.90
39899;DHT22;25571;47.876;10.642;2023-04-27T15:30:47;16.80;84.50